sensor_id;sensor_type;location;lat;lon;timestamp;pressure;altitude;pressure_sealevel;temperature;humidity
71424;BME280;59240;51.370;-0.486;2023-02-04T00:00:14;103462.28;;;10.87;73.43
71424;BME280;59240;51.370;-0.486;2023-02-04T00:02:42;103449.06;;;10.78;72.82
71424;BME280;59240;51.370;-0.486;2023-02-04T00:05:10;103497.38;;;11.05;73.38
71424;BME280;59240;51.370;-0.486;2023-02-04T00:07:37;103457.69;;;10.76;72.86
71424;BME280;59240;51.370;-0.486;2023-02-04T00:10:07;103507.00;;;11.06;73.71
71424;BME280;59240;51.370;-0.486;2023-02-04T00:12:34;103448.91;;;10.71;72.98
71424;BME280;59240;51.370;-0.486;2023-02-04T00:15:01;103472.69;;;10.87;74.00
71424;BME280;59240;51.370;-0.486;2023-02-04T00:17:28;103434.81;;;10.62;74.04
71424;BME280;59240;51.370;-0.486;2023-02-04T00:19:55;103472.66;;;10.84;73.77
71424;BME280;59240;51.370;-0.486;2023-02-04T00:22:22;103481.34;;;10.85;73.72
71424;BME280;59240;51.370;-0.486;2023-02-04T00:24:49;103495.44;;;10.94;74.13
71424;BME280;59240;51.370;-0.486;2023-02-04T00:27:16;103465.59;;;10.80;73.94
71424;BME280;59240;51.370;-0.486;2023-02-04T00:29:44;103480.56;;;10.90;74.08
71424;BME280;59240;51.370;-0.486;2023-02-04T00:32:11;103476.13;;;10.85;74.01
71424;BME280;59240;51.370;-0.486;2023-02-04T00:34:38;103488.41;;;10.90;73.69
71424;BME280;59240;51.370;-0.486;2023-02-04T00:37:04;103504.28;;;11.03;73.46
71424;BME280;59240;51.370;-0.486;2023-02-04T00:39:31;103490.19;;;10.91;74.15
71424;BME280;59240;51.370;-0.486;2023-02-04T00:41:58;103455.00;;;10.71;74.62
71424;BME280;59240;51.370;-0.486;2023-02-04T00:44:24;103509.38;;;10.96;74.44
71424;BME280;59240;51.370;-0.486;2023-02-04T00:46:51;103496.16;;;10.86;74.53
71424;BME280;59240;51.370;-0.486;2023-02-04T00:49:18;103463.66;;;10.70;74.16
71424;BME280;59240;51.370;-0.486;2023-02-04T00:51:44;103506.75;;;10.95;74.44
71424;BME280;59240;51.370;-0.486;2023-02-04T00:54:12;103484.72;;;10.79;74.33
71424;BME280;59240;51.370;-0.486;2023-02-04T00:56:42;103504.03;;;10.90;75.01
71424;BME280;59240;51.370;-0.486;2023-02-04T00:59:10;103514.47;;;10.90;74.80
71424;BME280;59240;51.370;-0.486;2023-02-04T01:01:37;103479.38;;;10.73;74.46
71424;BME280;59240;51.370;-0.486;2023-02-04T01:04:04;103502.25;;;10.86;74.12
71424;BME280;59240;51.370;-0.486;2023-02-04T01:06:31;103503.97;;;10.86;75.35
71424;BME280;59240;51.370;-0.486;2023-02-04T01:08:58;103514.44;;;10.87;75.28
71424;BME280;59240;51.370;-0.486;2023-02-04T01:11:25;103523.31;;;10.97;75.21
71424;BME280;59240;51.370;-0.486;2023-02-04T01:13:51;103504.75;;;10.82;74.33
71424;BME280;59240;51.370;-0.486;2023-02-04T01:16:18;103528.50;;;10.95;75.01
71424;BME280;59240;51.370;-0.486;2023-02-04T01:18:45;103480.19;;;10.71;74.81
71424;BME280;59240;51.370;-0.486;2023-02-04T01:21:12;103495.91;;;10.75;75.00
71424;BME280;59240;51.370;-0.486;2023-02-04T01:23:39;103500.38;;;10.79;75.01
71424;BME280;59240;51.370;-0.486;2023-02-04T01:26:05;103531.97;;;10.96;75.77
71424;BME280;59240;51.370;-0.486;2023-02-04T01:28:32;103536.41;;;10.99;75.59
71424;BME280;59240;51.370;-0.486;2023-02-04T01:30:59;103503.88;;;10.81;75.52
71424;BME280;59240;51.370;-0.486;2023-02-04T01:33:26;103490.69;;;10.74;75.35
71424;BME280;59240;51.370;-0.486;2023-02-04T01:35:53;103544.22;;;10.99;75.64
71424;BME280;59240;51.370;-0.486;2023-02-04T01:38:19;103512.47;;;10.77;75.06
71424;BME280;59240;51.370;-0.486;2023-02-04T01:40:46;103529.97;;;10.83;75.34
71424;BME280;59240;51.370;-0.486;2023-02-04T01:43:13;103543.25;;;10.93;75.45
71424;BME280;59240;51.370;-0.486;2023-02-04T01:45:40;103490.41;;;10.61;75.31
71424;BME280;59240;51.370;-0.486;2023-02-04T01:48:07;103495.75;;;10.66;75.51
71424;BME280;59240;51.370;-0.486;2023-02-04T01:50:34;103520.25;;;10.76;75.55
71424;BME280;59240;51.370;-0.486;2023-02-04T01:53:01;103531.78;;;10.85;75.45
71424;BME280;59240;51.370;-0.486;2023-02-04T01:55:30;103525.56;;;10.79;75.87
71424;BME280;59240;51.370;-0.486;2023-02-04T01:57:57;103523.81;;;10.78;75.35
71424;BME280;59240;51.370;-0.486;2023-02-04T02:00:25;103551.97;;;10.95;76.09
71424;BME280;59240;51.370;-0.486;2023-02-04T02:02:54;103532.63;;;10.84;75.07
71424;BME280;59240;51.370;-0.486;2023-02-04T02:05:24;103524.59;;;10.75;75.89
71424;BME280;59240;51.370;-0.486;2023-02-04T02:07:53;103551.94;;;10.92;76.26
71424;BME280;59240;51.370;-0.486;2023-02-04T02:10:22;103530.78;;;10.79;76.19
71424;BME280;59240;51.370;-0.486;2023-02-04T02:12:50;103536.00;;;10.80;75.38
71424;BME280;59240;51.370;-0.486;2023-02-04T02:15:17;103551.00;;;10.90;75.54
71424;BME280;59240;51.370;-0.486;2023-02-04T02:17:44;103505.28;;;10.65;76.04
71424;BME280;59240;51.370;-0.486;2023-02-04T02:20:14;103519.31;;;10.71;75.77
71424;BME280;59240;51.370;-0.486;2023-02-04T02:22:59;103519.19;;;10.66;76.26
71424;BME280;59240;51.370;-0.486;2023-02-04T02:25:28;103507.81;;;10.62;76.05
71424;BME280;59240;51.370;-0.486;2023-02-04T02:27:55;103520.06;;;10.66;75.29
71424;BME280;59240;51.370;-0.486;2023-02-04T02:30:23;103510.41;;;10.61;76.24
71424;BME280;59240;51.370;-0.486;2023-02-04T02:32:51;103544.56;;;10.73;76.08
71424;BME280;59240;51.370;-0.486;2023-02-04T02:35:18;103548.19;;;10.81;76.11
71424;BME280;59240;51.370;-0.486;2023-02-04T02:37:45;103533.31;;;10.77;76.14
71424;BME280;59240;51.370;-0.486;2023-02-04T02:40:12;103499.78;;;10.52;76.50
71424;BME280;59240;51.370;-0.486;2023-02-04T02:42:42;103537.63;;;10.75;76.98
71424;BME280;59240;51.370;-0.486;2023-02-04T02:45:20;103553.50;;;10.84;76.09
71424;BME280;59240;51.370;-0.486;2023-02-04T02:47:48;103529.75;;;10.72;75.81
71424;BME280;59240;51.370;-0.486;2023-02-04T02:50:17;103550.91;;;10.86;75.83
71424;BME280;59240;51.370;-0.486;2023-02-04T02:52:45;103547.44;;;10.85;76.84
71424;BME280;59240;51.370;-0.486;2023-02-04T02:55:17;103500.84;;;10.61;76.50
71424;BME280;59240;51.370;-0.486;2023-02-04T02:57:45;103523.63;;;10.70;76.32
71424;BME280;59240;51.370;-0.486;2023-02-04T03:00:20;103528.06;;;10.74;76.75
71424;BME280;59240;51.370;-0.486;2023-02-04T03:03:06;103498.06;;;10.54;76.58
71424;BME280;59240;51.370;-0.486;2023-02-04T03:05:40;103519.25;;;10.69;76.02
71424;BME280;59240;51.370;-0.486;2023-02-04T03:08:07;103549.06;;;10.82;76.23
71424;BME280;59240;51.370;-0.486;2023-02-04T03:10:35;103555.16;;;10.81;76.99
71424;BME280;59240;51.370;-0.486;2023-02-04T03:13:03;103528.78;;;10.67;76.34
71424;BME280;59240;51.370;-0.486;2023-02-04T03:15:30;103507.72;;;10.58;76.22
71424;BME280;59240;51.370;-0.486;2023-02-04T03:17:58;103527.03;;;10.67;76.36
71424;BME280;59240;51.370;-0.486;2023-02-04T03:20:27;103552.50;;;10.79;76.02
71424;BME280;59240;51.370;-0.486;2023-02-04T03:22:56;103546.41;;;10.79;77.15
71424;BME280;59240;51.370;-0.486;2023-02-04T03:25:23;103542.00;;;10.76;77.15
71424;BME280;59240;51.370;-0.486;2023-02-04T03:27:52;103506.88;;;10.59;76.58
71424;BME280;59240;51.370;-0.486;2023-02-04T03:30:20;103517.31;;;10.59;76.84
71424;BME280;59240;51.370;-0.486;2023-02-04T03:32:47;103498.09;;;10.55;76.75
71424;BME280;59240;51.370;-0.486;2023-02-04T03:35:14;103504.28;;;10.59;77.45
71424;BME280;59240;51.370;-0.486;2023-02-04T03:37:41;103494.47;;;10.49;76.39
71424;BME280;59240;51.370;-0.486;2023-02-04T03:40:08;103505.91;;;10.54;76.38
71424;BME280;59240;51.370;-0.486;2023-02-04T03:42:35;103532.22;;;10.64;77.12
71424;BME280;59240;51.370;-0.486;2023-02-04T03:45:02;103494.44;;;10.46;76.30
71424;BME280;59240;51.370;-0.486;2023-02-04T03:47:30;103533.13;;;10.68;76.34
71424;BME280;59240;51.370;-0.486;2023-02-04T03:49:56;103503.41;;;10.60;77.20
71424;BME280;59240;51.370;-0.486;2023-02-04T03:52:23;103496.34;;;10.54;77.32
71424;BME280;59240;51.370;-0.486;2023-02-04T03:54:49;103512.09;;;10.59;76.51
71424;BME280;59240;51.370;-0.486;2023-02-04T03:57:16;103513.72;;;10.54;77.80
71424;BME280;59240;51.370;-0.486;2023-02-04T03:59:42;103503.16;;;10.48;77.40
71424;BME280;59240;51.370;-0.486;2023-02-04T04:02:09;103513.66;;;10.51;77.35
71424;BME280;59240;51.370;-0.486;2023-02-04T04:04:36;103521.50;;;10.52;77.73
71424;BME280;59240;51.370;-0.486;2023-02-04T04:07:02;103520.63;;;10.52;76.98
71424;BME280;59240;51.370;-0.486;2023-02-04T04:09:29;103471.41;;;10.26;76.28
71424;BME280;59240;51.370;-0.486;2023-02-04T04:11:56;103476.56;;;10.23;77.24
71424;BME280;59240;51.370;-0.486;2023-02-04T04:14:22;103503.84;;;10.39;77.55
71424;BME280;59240;51.370;-0.486;2023-02-04T04:16:49;103532.88;;;10.56;77.47
71424;BME280;59240;51.370;-0.486;2023-02-04T04:19:15;103531.84;;;10.49;76.22
71424;BME280;59240;51.370;-0.486;2023-02-04T04:21:42;103531.84;;;10.49;76.58
71424;BME280;59240;51.370;-0.486;2023-02-04T04:24:09;103516.88;;;10.40;77.26
71424;BME280;59240;51.370;-0.486;2023-02-04T04:26:35;103518.59;;;10.38;77.06
71424;BME280;59240;51.370;-0.486;2023-02-04T04:29:02;103544.00;;;10.49;76.99
71424;BME280;59240;51.370;-0.486;2023-02-04T04:31:29;103532.47;;;10.37;76.42
71424;BME280;59240;51.370;-0.486;2023-02-04T04:33:56;103534.28;;;10.41;76.50
71424;BME280;59240;51.370;-0.486;2023-02-04T04:36:22;103508.00;;;10.31;76.64
71424;BME280;59240;51.370;-0.486;2023-02-04T04:38:49;103499.88;;;10.20;76.69
71424;BME280;59240;51.370;-0.486;2023-02-04T04:41:15;103502.44;;;10.17;76.69
71424;BME280;59240;51.370;-0.486;2023-02-04T04:43:42;103527.13;;;10.31;76.93
71424;BME280;59240;51.370;-0.486;2023-02-04T04:46:08;103557.88;;;10.48;77.06
71424;BME280;59240;51.370;-0.486;2023-02-04T04:48:35;103558.78;;;10.50;77.17
71424;BME280;59240;51.370;-0.486;2023-02-04T04:51:02;103527.88;;;10.27;76.54
71424;BME280;59240;51.370;-0.486;2023-02-04T04:53:28;103533.94;;;10.26;77.04
71424;BME280;59240;51.370;-0.486;2023-02-04T04:55:55;103511.00;;;10.13;77.49
71424;BME280;59240;51.370;-0.486;2023-02-04T04:58:22;103547.97;;;10.31;76.64
71424;BME280;59240;51.370;-0.486;2023-02-04T05:00:48;103544.50;;;10.32;77.08
71424;BME280;59240;51.370;-0.486;2023-02-04T05:03:15;103540.91;;;10.27;77.85
71424;BME280;59240;51.370;-0.486;2023-02-04T05:05:41;103547.00;;;10.28;77.16
71424;BME280;59240;51.370;-0.486;2023-02-04T05:08:09;103544.31;;;10.23;77.06
71424;BME280;59240;51.370;-0.486;2023-02-04T05:10:39;103554.03;;;10.30;77.26
71424;BME280;59240;51.370;-0.486;2023-02-04T05:13:06;103575.97;;;10.41;76.33
71424;BME280;59240;51.370;-0.486;2023-02-04T05:15:33;103565.41;;;10.35;76.88
71424;BME280;59240;51.370;-0.486;2023-02-04T05:18:00;103552.19;;;10.26;77.22
71424;BME280;59240;51.370;-0.486;2023-02-04T05:20:27;103545.94;;;10.21;76.81
71424;BME280;59240;51.370;-0.486;2023-02-04T05:22:53;103574.22;;;10.40;76.83
71424;BME280;59240;51.370;-0.486;2023-02-04T05:25:28;103524.88;;;10.12;77.48
71424;BME280;59240;51.370;-0.486;2023-02-04T05:27:54;103541.59;;;10.22;77.08
71424;BME280;59240;51.370;-0.486;2023-02-04T05:30:21;103541.44;;;10.15;77.49
71424;BME280;59240;51.370;-0.486;2023-02-04T05:32:48;103542.28;;;10.13;77.07
71424;BME280;59240;51.370;-0.486;2023-02-04T05:35:14;103585.44;;;10.36;77.27
71424;BME280;59240;51.370;-0.486;2023-02-04T05:37:41;103562.41;;;10.20;76.74
71424;BME280;59240;51.370;-0.486;2023-02-04T05:40:09;103587.91;;;10.30;77.33
71424;BME280;59240;51.370;-0.486;2023-02-04T05:42:35;103584.16;;;10.22;76.34
71424;BME280;59240;51.370;-0.486;2023-02-04T05:45:02;103580.78;;;10.23;77.17
71424;BME280;59240;51.370;-0.486;2023-02-04T05:47:29;103572.69;;;10.14;76.50
71424;BME280;59240;51.370;-0.486;2023-02-04T05:49:56;103586.78;;;10.22;77.44
71424;BME280;59240;51.370;-0.486;2023-02-04T05:52:23;103575.22;;;10.11;77.23
71424;BME280;59240;51.370;-0.486;2023-02-04T05:54:49;103576.97;;;10.12;76.89
71424;BME280;59240;51.370;-0.486;2023-02-04T05:57:16;103568.25;;;10.10;76.35
71424;BME280;59240;51.370;-0.486;2023-02-04T05:59:42;103576.97;;;10.12;78.10
71424;BME280;59240;51.370;-0.486;2023-02-04T06:02:09;103556.81;;;10.03;76.83
71424;BME280;59240;51.370;-0.486;2023-02-04T06:04:36;103555.84;;;10.00;76.98
71424;BME280;59240;51.370;-0.486;2023-02-04T06:07:03;103592.78;;;10.20;76.85
71424;BME280;59240;51.370;-0.486;2023-02-04T06:09:30;103599.78;;;10.22;77.56
71424;BME280;59240;51.370;-0.486;2023-02-04T06:11:56;103597.19;;;10.22;77.26
71424;BME280;59240;51.370;-0.486;2023-02-04T06:14:23;103551.34;;;9.94;77.52
71424;BME280;59240;51.370;-0.486;2023-02-04T06:16:50;103557.53;;;9.98;77.72
71424;BME280;59240;51.370;-0.486;2023-02-04T06:19:16;103608.47;;;10.21;77.86
71424;BME280;59240;51.370;-0.486;2023-02-04T06:21:43;103593.47;;;10.11;77.46
71424;BME280;59240;51.370;-0.486;2023-02-04T06:24:13;103534.41;;;9.75;77.63
71424;BME280;59240;51.370;-0.486;2023-02-04T06:26:40;103578.50;;;10.02;77.16
71424;BME280;59240;51.370;-0.486;2023-02-04T06:29:06;103563.50;;;9.94;77.92
71424;BME280;59240;51.370;-0.486;2023-02-04T06:31:33;103578.44;;;10.01;77.43
71424;BME280;59240;51.370;-0.486;2023-02-04T06:34:00;103569.50;;;9.91;77.35
71424;BME280;59240;51.370;-0.486;2023-02-04T06:36:32;103559.81;;;9.85;78.05
71424;BME280;59240;51.370;-0.486;2023-02-04T06:39:03;103554.44;;;9.79;77.87
71424;BME280;59240;51.370;-0.486;2023-02-04T06:41:30;103563.28;;;9.84;76.96
71424;BME280;59240;51.370;-0.486;2023-02-04T06:43:56;103563.31;;;9.86;77.12
71424;BME280;59240;51.370;-0.486;2023-02-04T06:46:23;103572.09;;;9.90;77.81
71424;BME280;59240;51.370;-0.486;2023-02-04T06:48:50;103573.72;;;9.86;77.70
71424;BME280;59240;51.370;-0.486;2023-02-04T06:51:17;103608.91;;;10.03;77.29
71424;BME280;59240;51.370;-0.486;2023-02-04T06:53:43;103625.56;;;10.10;77.74
71424;BME280;59240;51.370;-0.486;2023-02-04T06:56:11;103613.22;;;10.03;78.32
71424;BME280;59240;51.370;-0.486;2023-02-04T06:58:38;103592.13;;;9.94;77.26
71424;BME280;59240;51.370;-0.486;2023-02-04T07:01:04;103610.50;;;9.98;77.28
71424;BME280;59240;51.370;-0.486;2023-02-04T07:03:31;103606.16;;;9.99;77.54
71424;BME280;59240;51.370;-0.486;2023-02-04T07:06:00;103639.50;;;10.12;77.79
71424;BME280;59240;51.370;-0.486;2023-02-04T07:08:27;103576.13;;;9.78;77.07
71424;BME280;59240;51.370;-0.486;2023-02-04T07:10:57;103524.19;;;9.50;76.82
71424;BME280;59240;51.370;-0.486;2023-02-04T07:13:24;103617.59;;;10.04;77.41
71424;BME280;59240;51.370;-0.486;2023-02-04T07:15:51;103567.44;;;9.78;77.34
71424;BME280;59240;51.370;-0.486;2023-02-04T07:18:20;103566.44;;;9.73;77.60
71424;BME280;59240;51.370;-0.486;2023-02-04T07:20:47;103582.41;;;9.86;78.07
71424;BME280;59240;51.370;-0.486;2023-02-04T07:23:13;103579.63;;;9.80;77.81
71424;BME280;59240;51.370;-0.486;2023-02-04T07:25:40;103570.84;;;9.75;78.02
71424;BME280;59240;51.370;-0.486;2023-02-04T07:28:07;103608.63;;;9.94;78.17
71424;BME280;59240;51.370;-0.486;2023-02-04T07:30:34;103633.28;;;10.07;77.73
71424;BME280;59240;51.370;-0.486;2023-02-04T07:33:01;103588.41;;;9.82;77.46
71424;BME280;59240;51.370;-0.486;2023-02-04T07:35:28;103584.84;;;9.80;77.68
71424;BME280;59240;51.370;-0.486;2023-02-04T07:37:54;103596.25;;;9.84;78.09
71424;BME280;59240;51.370;-0.486;2023-02-04T07:40:21;103609.38;;;9.89;77.44
71424;BME280;59240;51.370;-0.486;2023-02-04T07:42:48;103649.78;;;10.07;77.60
71424;BME280;59240;51.370;-0.486;2023-02-04T07:45:15;103618.19;;;9.94;76.89
71424;BME280;59240;51.370;-0.486;2023-02-04T07:47:41;103620.75;;;9.92;77.11
71424;BME280;59240;51.370;-0.486;2023-02-04T07:50:08;103614.59;;;9.89;77.40
71424;BME280;59240;51.370;-0.486;2023-02-04T07:52:37;103625.16;;;9.95;77.45
71424;BME280;59240;51.370;-0.486;2023-02-04T07:55:09;103633.91;;;9.97;77.82
71424;BME280;59240;51.370;-0.486;2023-02-04T07:57:41;103623.16;;;9.84;77.33
71424;BME280;59240;51.370;-0.486;2023-02-04T08:00:13;103602.88;;;9.73;77.61
71424;BME280;59240;51.370;-0.486;2023-02-04T08:02:41;103657.56;;;10.06;78.43
71424;BME280;59240;51.370;-0.486;2023-02-04T08:05:09;103641.59;;;9.92;77.81
71424;BME280;59240;51.370;-0.486;2023-02-04T08:07:35;103629.28;;;9.86;77.74
71424;BME280;59240;51.370;-0.486;2023-02-04T08:10:05;103640.63;;;9.89;77.93
71424;BME280;59240;51.370;-0.486;2023-02-04T08:12:38;103595.84;;;9.69;77.00
71424;BME280;59240;51.370;-0.486;2023-02-04T08:15:05;103641.69;;;9.95;77.72
71424;BME280;59240;51.370;-0.486;2023-02-04T08:17:34;103643.38;;;9.95;77.23
71424;BME280;59240;51.370;-0.486;2023-02-04T08:20:01;103681.19;;;10.12;77.64
71424;BME280;59240;51.370;-0.486;2023-02-04T08:22:28;103636.19;;;9.84;77.82
71424;BME280;59240;51.370;-0.486;2023-02-04T08:24:54;103584.97;;;9.52;77.30
71424;BME280;59240;51.370;-0.486;2023-02-04T08:27:21;103614.09;;;9.70;78.07
71424;BME280;59240;51.370;-0.486;2023-02-04T08:29:51;103650.13;;;9.88;77.27
71424;BME280;59240;51.370;-0.486;2023-02-04T08:32:17;103658.97;;;9.93;77.54
71424;BME280;59240;51.370;-0.486;2023-02-04T08:34:54;103639.59;;;9.82;77.08
71424;BME280;59240;51.370;-0.486;2023-02-04T08:37:24;103645.00;;;9.90;77.37
71424;BME280;59240;51.370;-0.486;2023-02-04T08:39:56;103646.66;;;9.87;76.65
71424;BME280;59240;51.370;-0.486;2023-02-04T08:42:32;103690.84;;;10.16;76.81
71424;BME280;59240;51.370;-0.486;2023-02-04T08:45:05;103624.69;;;9.76;77.40
71424;BME280;59240;51.370;-0.486;2023-02-04T08:47:32;103645.97;;;9.95;76.92
71424;BME280;59240;51.370;-0.486;2023-02-04T08:49:58;103658.31;;;10.02;77.11
71424;BME280;59240;51.370;-0.486;2023-02-04T08:52:28;103711.28;;;10.32;77.15
71424;BME280;59240;51.370;-0.486;2023-02-04T08:55:03;103705.19;;;10.32;77.14
71424;BME280;59240;51.370;-0.486;2023-02-04T08:57:38;103640.06;;;10.00;76.92
71424;BME280;59240;51.370;-0.486;2023-02-04T09:00:09;103637.34;;;9.96;76.91
71424;BME280;59240;51.370;-0.486;2023-02-04T09:02:36;103679.66;;;10.20;77.27
71424;BME280;59240;51.370;-0.486;2023-02-04T09:05:04;103648.03;;;10.06;76.27
71424;BME280;59240;51.370;-0.486;2023-02-04T09:07:31;103697.34;;;10.30;76.26
71424;BME280;59240;51.370;-0.486;2023-02-04T09:09:59;103681.69;;;10.30;76.77
71424;BME280;59240;51.370;-0.486;2023-02-04T09:12:31;103688.81;;;10.37;76.22
71424;BME280;59240;51.370;-0.486;2023-02-04T09:15:00;103631.63;;;10.09;76.58
71424;BME280;59240;51.370;-0.486;2023-02-04T09:17:27;103696.13;;;10.51;76.29
71424;BME280;59240;51.370;-0.486;2023-02-04T09:19:56;103725.22;;;10.69;75.80
71424;BME280;59240;51.370;-0.486;2023-02-04T09:22:43;103635.50;;;10.23;75.73
71424;BME280;59240;51.370;-0.486;2023-02-04T09:25:10;103678.81;;;10.54;76.37
71424;BME280;59240;51.370;-0.486;2023-02-04T09:27:37;103716.78;;;10.79;76.04
71424;BME280;59240;51.370;-0.486;2023-02-04T09:30:25;103641.03;;;10.37;75.58
71424;BME280;59240;51.370;-0.486;2023-02-04T09:32:54;103647.28;;;10.44;75.60
71424;BME280;59240;51.370;-0.486;2023-02-04T09:35:32;103710.78;;;10.83;75.97
71424;BME280;59240;51.370;-0.486;2023-02-04T09:37:58;103698.44;;;10.76;75.20
71424;BME280;59240;51.370;-0.486;2023-02-04T09:40:32;103736.41;;;11.00;75.06
71424;BME280;59240;51.370;-0.486;2023-02-04T09:46:21;103670.13;;;10.55;75.58
71424;BME280;59240;51.370;-0.486;2023-02-04T09:48:49;103700.28;;;10.79;75.92
71424;BME280;59240;51.370;-0.486;2023-02-04T09:51:22;103713.50;;;10.86;75.49
71424;BME280;59240;51.370;-0.486;2023-02-04T09:53:51;103652.78;;;10.56;75.23
71424;BME280;59240;51.370;-0.486;2023-02-04T09:56:21;103679.09;;;10.65;75.02
71424;BME280;59240;51.370;-0.486;2023-02-04T09:58:48;103714.25;;;10.82;74.90
71424;BME280;59240;51.370;-0.486;2023-02-04T10:01:18;103717.59;;;10.77;75.27
71424;BME280;59240;51.370;-0.486;2023-02-04T10:03:47;103730.94;;;10.90;75.37
71424;BME280;59240;51.370;-0.486;2023-02-04T10:06:19;103704.50;;;10.75;74.76
71424;BME280;59240;51.370;-0.486;2023-02-04T10:08:50;103682.63;;;10.68;74.61
71424;BME280;59240;51.370;-0.486;2023-02-04T10:11:19;103692.19;;;10.68;74.78
71424;BME280;59240;51.370;-0.486;2023-02-04T10:13:53;103723.97;;;10.89;74.94
71424;BME280;59240;51.370;-0.486;2023-02-04T10:16:30;103679.13;;;10.68;74.62
71424;BME280;59240;51.370;-0.486;2023-02-04T10:19:05;103734.72;;;11.03;74.50
71424;BME280;59240;51.370;-0.486;2023-02-04T10:21:34;103710.94;;;10.89;74.19
71424;BME280;59240;51.370;-0.486;2023-02-04T10:24:16;103661.59;;;10.61;74.19
71424;BME280;59240;51.370;-0.486;2023-02-04T10:27:22;103771.63;;;11.18;73.80
71424;BME280;59240;51.370;-0.486;2023-02-04T10:30:27;103694.88;;;10.71;74.79
71424;BME280;59240;51.370;-0.486;2023-02-04T10:33:28;103738.13;;;10.99;73.87
71424;BME280;59240;51.370;-0.486;2023-02-04T10:35:59;103720.59;;;10.92;73.80
71424;BME280;59240;51.370;-0.486;2023-02-04T10:39:10;103766.44;;;11.20;73.28
71424;BME280;59240;51.370;-0.486;2023-02-04T10:41:53;103702.06;;;10.81;74.03
71424;BME280;59240;51.370;-0.486;2023-02-04T10:44:32;103728.59;;;11.00;73.87
71424;BME280;59240;51.370;-0.486;2023-02-04T10:47:19;103778.00;;;11.31;73.73
71424;BME280;59240;51.370;-0.486;2023-02-04T10:50:14;103712.69;;;10.90;73.51
71424;BME280;59240;51.370;-0.486;2023-02-04T10:52:56;103718.16;;;11.00;73.41
71424;BME280;59240;51.370;-0.486;2023-02-04T10:55:56;103680.03;;;10.68;73.75
71424;BME280;59240;51.370;-0.486;2023-02-04T10:58:28;103687.88;;;10.70;72.97
71424;BME280;59240;51.370;-0.486;2023-02-04T11:01:01;103698.41;;;10.75;73.77
71424;BME280;59240;51.370;-0.486;2023-02-04T11:04:33;103694.00;;;10.71;72.68
71424;BME280;59240;51.370;-0.486;2023-02-04T11:06:49;103754.81;;;11.06;72.87
71424;BME280;59240;51.370;-0.486;2023-02-04T11:09:19;103739.94;;;11.02;72.61
71424;BME280;59240;51.370;-0.486;2023-02-04T11:11:56;103781.47;;;11.30;72.13
71424;BME280;59240;51.370;-0.486;2023-02-04T11:14:39;103755.94;;;11.17;72.36
71424;BME280;59240;51.370;-0.486;2023-02-04T11:17:19;103755.13;;;11.19;72.60
71424;BME280;59240;51.370;-0.486;2023-02-04T11:19:52;103737.50;;;11.09;72.83
71424;BME280;59240;51.370;-0.486;2023-02-04T11:22:43;103691.78;;;10.87;71.45
71424;BME280;59240;51.370;-0.486;2023-02-04T11:25:33;103733.31;;;11.17;71.89
71424;BME280;59240;51.370;-0.486;2023-02-04T11:36:04;103705.00;;;10.95;71.88
71424;BME280;59240;51.370;-0.486;2023-02-04T11:38:32;103713.91;;;11.05;72.23
71424;BME280;59240;51.370;-0.486;2023-02-04T11:41:25;103770.44;;;11.42;71.33
71424;BME280;59240;51.370;-0.486;2023-02-04T11:43:57;103717.53;;;11.11;71.62
71424;BME280;59240;51.370;-0.486;2023-02-04T11:46:25;103786.16;;;11.45;71.68
71424;BME280;59240;51.370;-0.486;2023-02-04T11:49:00;103738.66;;;11.22;71.40
71424;BME280;59240;51.370;-0.486;2023-02-04T11:51:30;103779.28;;;11.48;71.58
71424;BME280;59240;51.370;-0.486;2023-02-04T11:53:58;103705.28;;;11.07;71.59
71424;BME280;59240;51.370;-0.486;2023-02-04T11:56:51;103734.28;;;11.21;71.46
71424;BME280;59240;51.370;-0.486;2023-02-04T12:03:16;103781.88;;;11.48;69.95
71424;BME280;59240;51.370;-0.486;2023-02-04T12:05:50;103704.25;;;11.01;70.11
71424;BME280;59240;51.370;-0.486;2023-02-04T12:08:35;103711.28;;;11.05;70.24
71424;BME280;59240;51.370;-0.486;2023-02-04T12:13:53;103689.94;;;10.83;70.52
71424;BME280;59240;51.370;-0.486;2023-02-04T12:20:12;103715.56;;;11.01;70.20
71424;BME280;59240;51.370;-0.486;2023-02-04T12:22:46;103690.81;;;10.84;69.25
71424;BME280;59240;51.370;-0.486;2023-02-04T12:25:16;103699.66;;;10.90;69.47
71424;BME280;59240;51.370;-0.486;2023-02-04T12:28:01;103732.16;;;11.05;70.14
71424;BME280;59240;51.370;-0.486;2023-02-04T12:30:50;103704.06;;;10.91;69.10
71424;BME280;59240;51.370;-0.486;2023-02-04T12:33:41;103794.69;;;11.38;69.39
71424;BME280;59240;51.370;-0.486;2023-02-04T12:36:16;103697.13;;;10.93;69.75
71424;BME280;59240;51.370;-0.486;2023-02-04T12:39:21;103770.25;;;11.34;69.53
71424;BME280;59240;51.370;-0.486;2023-02-04T12:42:02;103728.78;;;11.09;69.00
71424;BME280;59240;51.370;-0.486;2023-02-04T12:44:41;103697.00;;;10.87;68.67
71424;BME280;59240;51.370;-0.486;2023-02-04T12:48:26;103710.19;;;10.95;69.25
71424;BME280;59240;51.370;-0.486;2023-02-04T12:51:24;103712.84;;;10.96;68.64
71424;BME280;59240;51.370;-0.486;2023-02-04T12:54:00;103679.28;;;10.74;68.12
71424;BME280;59240;51.370;-0.486;2023-02-04T12:56:33;103741.84;;;11.10;68.86
71424;BME280;59240;51.370;-0.486;2023-02-04T12:59:39;103716.38;;;10.99;68.30
71424;BME280;59240;51.370;-0.486;2023-02-04T13:02:10;103797.34;;;11.39;68.76
71424;BME280;59240;51.370;-0.486;2023-02-04T13:08:07;103697.69;;;10.80;66.38
71424;BME280;59240;51.370;-0.486;2023-02-04T13:10:40;103755.06;;;11.18;67.30
71424;BME280;59240;51.370;-0.486;2023-02-04T13:13:27;103733.09;;;11.07;67.53
71424;BME280;59240;51.370;-0.486;2023-02-04T13:15:54;103784.16;;;11.33;67.08
71424;BME280;59240;51.370;-0.486;2023-02-04T13:18:24;103695.22;;;10.86;66.69
71424;BME280;59240;51.370;-0.486;2023-02-04T13:21:04;103735.56;;;11.01;67.27
71424;BME280;59240;51.370;-0.486;2023-02-04T13:23:46;103709.19;;;10.88;66.37